La Center, Washington
Current Conditions -  °F | °C
As of 1:53 AM on Sunday 26 Oct 2014 (Local Time) from KSPB Reporting Station
Broken Clouds Broken Clouds  
Wind Chill: 48°   Ceiling: 6000
Heat Index: 48°   Visibility: 10mi
Dew Point: 45°   Wind: 3mph
Humidity: 89%   Direction: 300°WNW
Pressure: 29.95"   Gusts: NA
Location:  45.86°N, 122.67°W
Report Text: KSPB 260853Z AUTO 30003KT 10SM BKN060 09/07 A2995 RMK AO2 SLP140 60004 T00890072 53029
Loading
Personal Weather Stations






























Interactive Weather Map
Tropical Storm Tracking
New forecast layout! Learn more

10-Day Weather Forecast

Advertisements
Track Severe Weather on mobile